1879 Hurricane NOT_NAMED (1879309N21332)


IBTrACS version v04r00. Visit IBTrACS website for data access.
Please direct all questions to the IBTrACS Q and A forum

Storm track - Intensity - Wind Radii - Intensity Data - Source Data - All data

Summary Information

Storm ID 1879309N21332
Start Nov 5 00Z
Max Intensity 80 kt (Nov 6 06Z), 972 mb (Nov 6 00Z)
End Nov 12 12Z
ATCF IDs
Track status Best track data.

Storm track plot

Map of storm track

Intensity plots

Map of storm track

Radial wind information

No radial wind information for this storm


Position and Intensity Table

BASIN ISO_TIME_________ NATURE LAT LON MLC WIND MLC PRES
degrees north degrees east kts mb
NA 1879-11-05 00:00:00 TS 21.00 -28.00 40
NA 03:00:00 TS 21.25 -27.75 47
NA 06:00:00 TS 21.50 -27.50 55
NA 09:00:00 TS 21.75 -27.25 60
NA 12:00:00 TS 22.00 -27.00 65
NA 15:00:00 TS 22.25 -26.75 67
NA 18:00:00 TS 22.50 -26.50 70
NA 21:00:00 TS 22.61 -26.27 72
NA 1879-11-06 00:00:00 TS 23.00 -26.00 75 972
NA 03:00:00 TS 24.02 -25.62 77 972
NA 06:00:00 TS 25.30 -25.20 80 972
NA 09:00:00 TS 26.51 -24.74 80 972
NA 12:00:00 TS 27.50 -24.40 80 973
NA 15:00:00 TS 28.01 -24.33 80
NA 18:00:00 TS 28.30 -24.40 80
NA 21:00:00 TS 28.65 -24.45 80
NA 1879-11-07 00:00:00 TS 29.00 -24.50 80
NA 03:00:00 TS 29.40 -24.50 80
NA 06:00:00 TS 29.80 -24.50 80
NA 09:00:00 TS 30.16 -24.49 80
NA 12:00:00 TS 30.50 -24.60 80
NA 15:00:00 TS 30.86 -24.95 77
NA 18:00:00 TS 31.20 -25.40 75
NA 21:00:00 TS 31.51 -25.76 70
NA 1879-11-08 00:00:00 ET 31.80 -26.10 65
NA 03:00:00 ET 32.10 -26.45 62
NA 06:00:00 ET 32.40 -26.80 60
NA 09:00:00 ET 32.66 -27.20 60
NA 12:00:00 ET 33.00 -27.50 60
NA 15:00:00 ET 33.51 -27.66 60
NA 18:00:00 ET 34.10 -27.50 60
NA 21:00:00 ET 34.62 -26.86 57
NA 1879-11-09 00:00:00 ET 35.20 -26.00 55
NA 03:00:00 ET 36.01 -25.25 52
NA 06:00:00 ET 36.70 -24.50 50
NA 09:00:00 ET 37.01 -23.67 47
NA 12:00:00 ET 37.00 -23.00 45
NA 15:00:00 ET 36.77 -22.67 42
NA 18:00:00 ET 36.40 -22.50 40
NA 21:00:00 ET 36.10 -22.25 40
NA 1879-11-10 00:00:00 ET 35.80 -22.00 40
NA 03:00:00 ET 35.51 -21.75 40
NA 06:00:00 ET 35.20 -21.50 40
NA 09:00:00 ET 34.83 -21.27 40
NA 12:00:00 ET 34.50 -21.00 40
NA 15:00:00 ET 34.31 -20.62 40
NA 18:00:00 ET 34.20 -20.20 40
NA 21:00:00 ET 34.10 -19.84 40
NA 1879-11-11 00:00:00 ET 34.00 -19.50 40
NA 03:00:00 ET 33.85 -19.16 40
NA 06:00:00 ET 33.70 -18.80 40
NA 09:00:00 ET 33.57 -18.42 37
NA 12:00:00 ET 33.50 -18.00 35
NA 15:00:00 ET 33.53 -17.52 35
NA 18:00:00 ET 33.60 -17.00 35
NA 21:00:00 ET 33.65 -16.50 32
NA 1879-11-12 00:00:00 ET 33.70 -16.00 30
NA 03:00:00 ET 33.74 -15.50 30
NA 06:00:00 ET 33.80 -15.00 30
NA 09:00:00 ET 33.89 -14.50 27
NA 12:00:00 ET 34.00 -14.00 25

Source Information

Agency Information
USA
TOKYO
CMA
HKO
NEWDELHI
REUNION
BOM
NADI
WELLINGTON
DS824
TD9636
TD9635
NEUMANN
MLC

All available IBTrACS Data

SEASON BASIN SUBBASIN ISO_TIME_________ NATURE LAT LON DIST2LAND LANDFALL IFLAG USA SSHS MLC LAT MLC LON MLC CLASS MLC WIND MLC PRES STORM SPEED STORM DIR
Year degrees north degrees east km km 1 degrees north degrees east kts mb kts degrees
1879 NA NA 1879-11-05 00:00:00 TS 21.00 -28.00 1132 1111 _____________O -1 21.00 -28.00 TS 40 7 43
1879 NA NA 03:00:00 TS 21.25 -27.75 1111 1080 _____________P -1 21.25 -27.75 TS 47 7 43
1879 NA NA 06:00:00 TS 21.50 -27.50 1080 1061 _____________O -1 21.50 -27.50 TS 55 7 43
1879 NA NA 09:00:00 TS 21.75 -27.25 1051 1031 _____________P -1 21.75 -27.25 TS 60 7 43
1879 NA NA 12:00:00 TS 22.00 -27.00 1031 1010 _____________O -1 22.00 -27.00 HU 65 7 43
1879 NA NA 15:00:00 TS 22.25 -26.75 1000 981 _____________P -1 22.25 -26.75 HU 67 7 43
1879 NA NA 18:00:00 TS 22.50 -26.50 981 961 _____________O -1 22.50 -26.50 HU 70 6 50
1879 NA NA 21:00:00 TS 22.61 -26.27 961 933 _____________P -1 22.61 -26.27 HU 72 7 43
1879 NA NA 1879-11-06 00:00:00 TS 23.00 -26.00 934 914 _____________O -1 23.00 -26.00 HU 75 972 15 23
1879 NA NA 03:00:00 TS 24.02 -25.62 914 898 _____________P -1 24.02 -25.62 HU 77 972 24 18
1879 NA NA 06:00:00 TS 25.30 -25.20 893 811 _____________I -1 25.30 -25.20 HU 80 972 26 18
1879 NA NA 09:00:00 TS 26.51 -24.74 802 750 _____________P -1 26.51 -24.74 HU 80 972 23 18
1879 NA NA 12:00:00 TS 27.50 -24.40 750 735 _____________O -1 27.50 -24.40 HU 80 973 16 14
1879 NA NA 15:00:00 TS 28.01 -24.33 735 734 _____________P -1 28.01 -24.33 HU 80 8 1
1879 NA NA 18:00:00 TS 28.30 -24.40 743 742 _____________O -1 28.30 -24.40 HU 80 6 351
1879 NA NA 21:00:00 TS 28.65 -24.45 743 743 _____________P -1 28.65 -24.45 HU 80 7 353
1879 NA NA 1879-11-07 00:00:00 TS 29.00 -24.50 754 754 _____________O -1 29.00 -24.50 HU 80 8 358
1879 NA NA 03:00:00 TS 29.40 -24.50 758 758 _____________P -1 29.40 -24.50 HU 80 8 1
1879 NA NA 06:00:00 TS 29.80 -24.50 765 765 _____________O -1 29.80 -24.50 HU 80 8 0
1879 NA NA 09:00:00 TS 30.16 -24.49 775 775 _____________P -1 30.16 -24.49 HU 80 7 353
1879 NA NA 12:00:00 TS 30.50 -24.60 793 793 _____________O -1 30.50 -24.60 HU 80 8 330
1879 NA NA 15:00:00 TS 30.86 -24.95 842 842 _____________P -1 30.86 -24.95 HU 77 10 316
1879 NA NA 18:00:00 TS 31.20 -25.40 889 889 _____________O -1 31.20 -25.40 HU 75 9 313
1879 NA NA 21:00:00 TS 31.51 -25.76 936 936 _____________P -1 31.51 -25.76 HU 70 8 315
1879 NA NA 1879-11-08 00:00:00 ET 31.80 -26.10 974 974 _____________O -1 31.80 -26.10 EX 65 8 315
1879 NA NA 03:00:00 ET 32.10 -26.45 1022 1022 _____________P -1 32.10 -26.45 EX 62 8 315
1879 NA NA 06:00:00 ET 32.40 -26.80 1061 1061 _____________O -1 32.40 -26.80 EX 60 8 312
1879 NA NA 09:00:00 ET 32.66 -27.20 1108 1108 _____________P -1 32.66 -27.20 EX 60 8 316
1879 NA NA 12:00:00 ET 33.00 -27.50 1147 1147 _____________O -1 33.00 -27.50 EX 60 9 335
1879 NA NA 15:00:00 ET 33.51 -27.66 1188 1188 _____________P -1 33.51 -27.66 EX 60 11 360
1879 NA NA 18:00:00 ET 34.10 -27.50 1203 1185 _____________O -1 34.10 -27.50 EX 60 13 31
1879 NA NA 21:00:00 ET 34.62 -26.86 1185 1159 _____________P -1 34.62 -26.86 EX 57 17 48
1879 NA NA 1879-11-09 00:00:00 ET 35.20 -26.00 1159 1159 _____________O -1 35.20 -26.00 EX 55 19 43
1879 NA NA 03:00:00 ET 36.01 -25.25 1171 1167 _____________P -1 36.01 -25.25 EX 52 19 39
1879 NA NA 06:00:00 ET 36.70 -24.50 1181 1164 _____________O -1 36.70 -24.50 EX 50 16 52
1879 NA NA 09:00:00 ET 37.01 -23.67 1164 1129 _____________P -1 37.01 -23.67 EX 47 12 76
1879 NA NA 12:00:00 ET 37.00 -23.00 1129 1096 _____________O -1 37.00 -23.00 EX 45 8 107
1879 NA NA 15:00:00 ET 36.77 -22.67 1096 1049 _____________P -1 36.77 -22.67 EX 42 7 146
1879 NA NA 18:00:00 ET 36.40 -22.50 1049 1011 _____________O -1 36.40 -22.50 EX 40 8 153
1879 NA NA 21:00:00 ET 36.10 -22.25 1011 968 _____________P -1 36.10 -22.25 EX 40 7 146
1879 NA NA 1879-11-10 00:00:00 ET 35.80 -22.00 968 930 _____________O -1 35.80 -22.00 EX 40 7 146
1879 NA NA 03:00:00 ET 35.51 -21.75 930 888 _____________P -1 35.51 -21.75 EX 40 7 146
1879 NA NA 06:00:00 ET 35.20 -21.50 888 840 _____________O -1 35.20 -21.50 EX 40 8 150
1879 NA NA 09:00:00 ET 34.83 -21.27 840 797 _____________P -1 34.83 -21.27 EX 40 8 150
1879 NA NA 12:00:00 ET 34.50 -21.00 797 759 _____________O -1 34.50 -21.00 EX 40 7 134
1879 NA NA 15:00:00 ET 34.31 -20.62 759 730 _____________P -1 34.31 -20.62 EX 40 7 114
1879 NA NA 18:00:00 ET 34.20 -20.20 730 707 _____________O -1 34.20 -20.20 EX 40 7 108
1879 NA NA 21:00:00 ET 34.10 -19.84 702 680 _____________P -1 34.10 -19.84 EX 40 6 109
1879 NA NA 1879-11-11 00:00:00 ET 34.00 -19.50 680 658 _____________O -1 34.00 -19.50 EX 40 6 114
1879 NA NA 03:00:00 ET 33.85 -19.16 648 623 _____________P -1 33.85 -19.16 EX 40 7 117
1879 NA NA 06:00:00 ET 33.70 -18.80 623 599 _____________O -1 33.70 -18.80 EX 40 7 115
1879 NA NA 09:00:00 ET 33.57 -18.42 599 578 _____________P -1 33.57 -18.42 EX 37 7 107
1879 NA NA 12:00:00 ET 33.50 -18.00 578 567 _____________O -1 33.50 -18.00 EX 35 8 93
1879 NA NA 15:00:00 ET 33.53 -17.52 567 564 _____________P -1 33.53 -17.52 EX 35 8 83
1879 NA NA 18:00:00 ET 33.60 -17.00 571 569 _____________O -1 33.60 -17.00 EX 35 9 82
1879 NA NA 21:00:00 ET 33.65 -16.50 569 569 _____________P -1 33.65 -16.50 EX 32 8 83
1879 NA NA 1879-11-12 00:00:00 ET 33.70 -16.00 580 575 _____________O -1 33.70 -16.00 EX 30 8 84
1879 NA NA 03:00:00 ET 33.74 -15.50 575 549 _____________P -1 33.74 -15.50 EX 30 8 83
1879 NA NA 06:00:00 ET 33.80 -15.00 549 507 _____________O -1 33.80 -15.00 EX 30 8 80
1879 NA NA 09:00:00 ET 33.89 -14.50 507 467 _____________P -1 33.89 -14.50 EX 27 9 76
1879 NA NA 12:00:00 ET 34.00 -14.00 467 _____________O -1 34.00 -14.00 EX 25 9 75